Sitka, AK

11:44 PM AKDT on July 30, 2014 (GMT -0800)
Kake (PAFE) Elev 171 ft | 56.96 °N, 133.91 °W | Change Station

Current weather conditions updated 8 minutes ago

Mostly Cloudy
Mostly Cloudy
52 °F
Feels Like 52 °F
N
0
Wind Variable Wind from North

Tomorrow is forecast to be Warmer than today.

Today
High -- | Low -- °F
--% Chance of Precip.
Yesterday
High -- | Low -- °F
Precip. -- in
4:56 AM 9:17 PM
Waxing Crescent, 16% visible
Pressure 30.33 in
Visibility 10.0 miles
Clouds Mostly Cloudy 8000 ft
Dew Point 48 °F
Humidity 88%
Rainfall 0.02 in
Snow Depth Not available.
UV 0 out of 12
Pollen Not available.
Air Quality Not available.
Flu Activity Not available.
METAR PAFE 310736Z AUTO 00000KT 10SM BKN080 11/09 A3033 RMK AO1

More Conditions Fewer Conditions

Pressure 30.33 in
Visibility 10.0 miles
Clouds Mostly Cloudy 8000 ft
Dew Point 48 °F
Humidity 88%
Rainfall 0.02 in
Snow Depth Not available.
UV 0 out of 12
Pollen Not available.
Air Quality Not available.
Flu Activity Not available.
METAR PAFE 310736Z AUTO 00000KT 10SM BKN080 11/09 A3033 RMK AO1

More Conditions Fewer Conditions

10-Day Weather Forecast

Almanac

Astronomy

Jul. 30, 2014 Rise Set
Actual Time 4:56 AM AKDT 9:17 PM AKDT
Civil Twilight 4:04 AM AKDT 10:09 PM AKDT
Nautical Twilight 2:40 AM AKDT 11:30 PM AKDT
Astronomical Twilight Sun does not rise Sun does not rise
Moon 9:31 AM AKDT (7/30) 10:02 PM AKDT (7/30)
Length of Visible Light 18h 04m
Length of Day
16h 21m
Tomorrow will be 4m 2s shorter.
Waxing Crescent, 16% of the Moon is Illuminated
Jul 31
Waxing Crescent
Aug 3
First Quarter
Aug 10
Full
Aug 17
Last Quarter
Aug 25
New

Community

WunderPhotos

Upload Photos

1,739,258 photos uploaded!

Nearby

Snow Depth

Station Depth Elevation
Long Lake 0 in 820 ft
Upper Tsaina River 0 in 1750 ft
Moraine 0 in 2100 ft
Grandview 2 in 1100 ft
Grouse Creek Divide 0 in 700 ft

Earthquake Activity

City Distance Mag. Time & Date
No recent earthquake activity has been reported nearby.
Minimum magnitude displayed is 2.5.

Coastal Water Temperatures

Place Temperature
No Stations Reporting

Nearby Weather Stations

Station Location Temp. Dew Point Humidity Wind Precip. Elev Updated Type
HADS TAKATZ C NR BARANOF AK , Sitka, AK 51 °F - - North  at  - 0.00 in / hr 227 ft 10:00 PM AKDT MADIS

Show More Stations Show Fewer Stations